sensor_id;sensor_type;location;lat;lon;timestamp;P1;durP1;ratioP1;P2;durP2;ratioP2
68473;SDS011;55461;52.066;5.194;2023-01-19T00:00:41;11.0;;;7.4;;
68473;SDS011;55461;52.066;5.194;2023-01-19T00:02:19;13.5;;;8.4;;
68473;SDS011;55461;52.066;5.194;2023-01-19T00:03:56;11.5;;;7.5;;
68473;SDS011;55461;52.066;5.194;2023-01-19T00:07:10;13.4;;;7.7;;
68473;SDS011;55461;52.066;5.194;2023-01-19T00:08:49;13.4;;;8.0;;
68473;SDS011;55461;52.066;5.194;2023-01-19T00:10:25;13.3;;;7.9;;
68473;SDS011;55461;52.066;5.194;2023-01-19T00:12:01;14.8;;;8.9;;
68473;SDS011;55461;52.066;5.194;2023-01-19T00:15:14;13.5;;;8.71;;
68473;SDS011;55461;52.066;5.194;2023-01-19T00:16:50;13.9;;;9.4;;
68473;SDS011;55461;52.066;5.194;2023-01-19T00:18:27;15.6;;;10.3;;
68473;SDS011;55461;52.066;5.194;2023-01-19T00:21:42;13.4;;;8.81;;
68473;SDS011;55461;52.066;5.194;2023-01-19T00:23:19;12.7;;;9.21;;
68473;SDS011;55461;52.066;5.194;2023-01-19T00:24:55;13.7;;;9.0;;
68473;SDS011;55461;52.066;5.194;2023-01-19T00:28:08;16.3;;;10.0;;
68473;SDS011;55461;52.066;5.194;2023-01-19T00:29:45;13.5;;;8.6;;
68473;SDS011;55461;52.066;5.194;2023-01-19T00:31:21;13.8;;;8.31;;
68473;SDS011;55461;52.066;5.194;2023-01-19T00:32:57;13.9;;;7.6;;
68473;SDS011;55461;52.066;5.194;2023-01-19T00:36:24;12.2;;;7.6;;
68473;SDS011;55461;52.066;5.194;2023-01-19T00:38:00;13.1;;;7.8;;
68473;SDS011;55461;52.066;5.194;2023-01-19T00:39:37;13.7;;;7.7;;
68473;SDS011;55461;52.066;5.194;2023-01-19T00:42:51;14.2;;;8.0;;
68473;SDS011;55461;52.066;5.194;2023-01-19T00:44:27;15.0;;;8.4;;
68473;SDS011;55461;52.066;5.194;2023-01-19T00:46:04;12.0;;;7.7;;
68473;SDS011;55461;52.066;5.194;2023-01-19T00:47:40;11.1;;;7.1;;
68473;SDS011;55461;52.066;5.194;2023-01-19T00:50:53;15.5;;;8.0;;
68473;SDS011;55461;52.066;5.194;2023-01-19T00:52:30;14.4;;;8.6;;
68473;SDS011;55461;52.066;5.194;2023-01-19T00:54:09;14.5;;;8.31;;
68473;SDS011;55461;52.066;5.194;2023-01-19T00:57:21;13.2;;;9.81;;
68473;SDS011;55461;52.066;5.194;2023-01-19T00:58:58;15.2;;;10.6;;
68473;SDS011;55461;52.066;5.194;2023-01-19T01:00:34;17.8;;;11.4;;
68473;SDS011;55461;52.066;5.194;2023-01-19T01:02:10;17.8;;;11.2;;
68473;SDS011;55461;52.066;5.194;2023-01-19T01:05:24;18.5;;;11.3;;
68473;SDS011;55461;52.066;5.194;2023-01-19T01:07:00;15.8;;;10.6;;
68473;SDS011;55461;52.066;5.194;2023-01-19T01:08:36;17.91;;;10.8;;
68473;SDS011;55461;52.066;5.194;2023-01-19T01:11:51;13.0;;;9.31;;
68473;SDS011;55461;52.066;5.194;2023-01-19T01:13:27;9.31;;;5.6;;
68473;SDS011;55461;52.066;5.194;2023-01-19T01:15:04;5.8;;;2.9;;
68473;SDS011;55461;52.066;5.194;2023-01-19T01:18:19;3.9;;;2.4;;
68473;SDS011;55461;52.066;5.194;2023-01-19T01:19:57;4.2;;;2.0;;
68473;SDS011;55461;52.066;5.194;2023-01-19T01:21:34;4.41;;;1.6;;
68473;SDS011;55461;52.066;5.194;2023-01-19T01:23:11;2.7;;;0.9;;
68473;SDS011;55461;52.066;5.194;2023-01-19T01:26:24;1.9;;;0.8;;
68473;SDS011;55461;52.066;5.194;2023-01-19T01:28:02;3.2;;;0.9;;
68473;SDS011;55461;52.066;5.194;2023-01-19T01:29:45;2.21;;;0.8;;
68473;SDS011;55461;52.066;5.194;2023-01-19T01:33:00;2.21;;;0.9;;
68473;SDS011;55461;52.066;5.194;2023-01-19T01:34:36;1.9;;;1.11;;
68473;SDS011;55461;52.066;5.194;2023-01-19T01:36:12;2.21;;;1.2;;
68473;SDS011;55461;52.066;5.194;2023-01-19T01:37:48;3.1;;;1.2;;
68473;SDS011;55461;52.066;5.194;2023-01-19T01:41:02;3.0;;;1.2;;
68473;SDS011;55461;52.066;5.194;2023-01-19T01:42:39;2.7;;;1.2;;
68473;SDS011;55461;52.066;5.194;2023-01-19T01:44:41;1.8;;;1.11;;
68473;SDS011;55461;52.066;5.194;2023-01-19T01:46:21;1.4;;;0.9;;
68473;SDS011;55461;52.066;5.194;2023-01-19T01:49:40;2.0;;;1.0;;
68473;SDS011;55461;52.066;5.194;2023-01-19T01:51:25;1.5;;;0.9;;
68473;SDS011;55461;52.066;5.194;2023-01-19T01:53:08;2.1;;;1.2;;
68473;SDS011;55461;52.066;5.194;2023-01-19T01:54:49;2.5;;;0.9;;
68473;SDS011;55461;52.066;5.194;2023-01-19T01:58:10;2.6;;;0.9;;
68473;SDS011;55461;52.066;5.194;2023-01-19T01:59:48;2.6;;;0.9;;
68473;SDS011;55461;52.066;5.194;2023-01-19T02:04:18;3.9;;;1.3;;
68473;SDS011;55461;52.066;5.194;2023-01-19T02:05:58;4.3;;;1.2;;
68473;SDS011;55461;52.066;5.194;2023-01-19T02:13:25;7.3;;;1.7;;
68473;SDS011;55461;52.066;5.194;2023-01-19T02:16:41;4.0;;;1.2;;
68473;SDS011;55461;52.066;5.194;2023-01-19T02:18:17;5.4;;;1.4;;
68473;SDS011;55461;52.066;5.194;2023-01-19T02:19:57;4.2;;;1.11;;
68473;SDS011;55461;52.066;5.194;2023-01-19T02:23:19;4.41;;;1.11;;
68473;SDS011;55461;52.066;5.194;2023-01-19T02:25:12;6.7;;;1.4;;
68473;SDS011;55461;52.066;5.194;2023-01-19T02:26:49;2.7;;;1.0;;
68473;SDS011;55461;52.066;5.194;2023-01-19T02:28:26;3.5;;;1.2;;
68473;SDS011;55461;52.066;5.194;2023-01-19T02:30:04;4.0;;;1.0;;
68473;SDS011;55461;52.066;5.194;2023-01-19T02:33:20;4.61;;;1.0;;
68473;SDS011;55461;52.066;5.194;2023-01-19T02:34:57;4.61;;;1.0;;
68473;SDS011;55461;52.066;5.194;2023-01-19T02:39:54;3.3;;;1.0;;
68473;SDS011;55461;52.066;5.194;2023-01-19T02:41:34;2.31;;;0.9;;
68473;SDS011;55461;52.066;5.194;2023-01-19T02:43:17;3.2;;;1.0;;
68473;SDS011;55461;52.066;5.194;2023-01-19T02:44:55;3.1;;;0.9;;
68473;SDS011;55461;52.066;5.194;2023-01-19T02:48:07;3.6;;;1.11;;
68473;SDS011;55461;52.066;5.194;2023-01-19T02:49:44;4.5;;;0.9;;
68473;SDS011;55461;52.066;5.194;2023-01-19T02:51:29;4.91;;;1.2;;
68473;SDS011;55461;52.066;5.194;2023-01-19T02:53:08;2.9;;;1.0;;
68473;SDS011;55461;52.066;5.194;2023-01-19T02:56:54;6.3;;;1.3;;
68473;SDS011;55461;52.066;5.194;2023-01-19T02:59:47;4.3;;;1.11;;
68473;SDS011;55461;52.066;5.194;2023-01-19T03:01:36;2.0;;;0.8;;
68473;SDS011;55461;52.066;5.194;2023-01-19T03:05:15;2.5;;;0.8;;
68473;SDS011;55461;52.066;5.194;2023-01-19T03:07:02;2.0;;;0.8;;
68473;SDS011;55461;52.066;5.194;2023-01-19T03:08:46;2.31;;;0.8;;
68473;SDS011;55461;52.066;5.194;2023-01-19T03:10:30;3.1;;;0.8;;
68473;SDS011;55461;52.066;5.194;2023-01-19T03:12:20;4.0;;;1.0;;
68473;SDS011;55461;52.066;5.194;2023-01-19T03:14:08;2.5;;;0.9;;
68473;SDS011;55461;52.066;5.194;2023-01-19T03:17:32;2.5;;;0.8;;
68473;SDS011;55461;52.066;5.194;2023-01-19T03:19:11;4.7;;;1.2;;
68473;SDS011;55461;52.066;5.194;2023-01-19T03:20:54;4.1;;;1.4;;
68473;SDS011;55461;52.066;5.194;2023-01-19T03:22:36;3.2;;;1.11;;
68473;SDS011;55461;52.066;5.194;2023-01-19T03:25:53;3.2;;;0.9;;
68473;SDS011;55461;52.066;5.194;2023-01-19T03:27:34;4.1;;;1.11;;
68473;SDS011;55461;52.066;5.194;2023-01-19T03:29:14;2.4;;;1.0;;
68473;SDS011;55461;52.066;5.194;2023-01-19T03:30:55;3.8;;;1.11;;
68473;SDS011;55461;52.066;5.194;2023-01-19T03:34:23;3.4;;;0.9;;
68473;SDS011;55461;52.066;5.194;2023-01-19T03:36:03;3.5;;;1.11;;
68473;SDS011;55461;52.066;5.194;2023-01-19T03:37:46;2.4;;;0.9;;
68473;SDS011;55461;52.066;5.194;2023-01-19T03:39:25;5.4;;;1.3;;
68473;SDS011;55461;52.066;5.194;2023-01-19T03:42:46;3.6;;;1.11;;
68473;SDS011;55461;52.066;5.194;2023-01-19T03:44:25;3.8;;;1.11;;
68473;SDS011;55461;52.066;5.194;2023-01-19T03:47:44;4.5;;;1.3;;
68473;SDS011;55461;52.066;5.194;2023-01-19T03:50:56;4.2;;;1.2;;
68473;SDS011;55461;52.066;5.194;2023-01-19T03:52:34;4.41;;;1.6;;
68473;SDS011;55461;52.066;5.194;2023-01-19T03:54:10;4.5;;;1.4;;
68473;SDS011;55461;52.066;5.194;2023-01-19T03:57:25;4.0;;;1.11;;
68473;SDS011;55461;52.066;5.194;2023-01-19T03:59:04;3.6;;;0.8;;
68473;SDS011;55461;52.066;5.194;2023-01-19T04:00:40;2.8;;;0.9;;
68473;SDS011;55461;52.066;5.194;2023-01-19T04:02:16;2.5;;;0.6;;
68473;SDS011;55461;52.066;5.194;2023-01-19T04:05:29;2.0;;;0.7;;
68473;SDS011;55461;52.066;5.194;2023-01-19T04:07:07;2.1;;;0.8;;
68473;SDS011;55461;52.066;5.194;2023-01-19T04:08:44;2.21;;;0.8;;
68473;SDS011;55461;52.066;5.194;2023-01-19T04:12:00;2.21;;;0.8;;
68473;SDS011;55461;52.066;5.194;2023-01-19T04:13:37;1.9;;;0.8;;
68473;SDS011;55461;52.066;5.194;2023-01-19T04:15:14;2.31;;;0.7;;
68473;SDS011;55461;52.066;5.194;2023-01-19T04:16:51;3.4;;;1.11;;
68473;SDS011;55461;52.066;5.194;2023-01-19T04:20:04;3.6;;;1.0;;
68473;SDS011;55461;52.066;5.194;2023-01-19T04:21:42;3.2;;;1.11;;
68473;SDS011;55461;52.066;5.194;2023-01-19T04:23:18;3.5;;;1.11;;
68473;SDS011;55461;52.066;5.194;2023-01-19T04:26:30;3.7;;;1.2;;
68473;SDS011;55461;52.066;5.194;2023-01-19T04:28:06;3.1;;;1.11;;
68473;SDS011;55461;52.066;5.194;2023-01-19T04:29:42;4.3;;;1.3;;
68473;SDS011;55461;52.066;5.194;2023-01-19T04:32:57;5.8;;;1.8;;
68473;SDS011;55461;52.066;5.194;2023-01-19T04:34:34;6.9;;;1.6;;
68473;SDS011;55461;52.066;5.194;2023-01-19T04:36:10;8.0;;;1.9;;
68473;SDS011;55461;52.066;5.194;2023-01-19T04:37:46;8.6;;;1.7;;
68473;SDS011;55461;52.066;5.194;2023-01-19T04:40:59;6.9;;;1.6;;
68473;SDS011;55461;52.066;5.194;2023-01-19T04:42:35;7.6;;;1.5;;
68473;SDS011;55461;52.066;5.194;2023-01-19T04:44:11;6.9;;;1.4;;
68473;SDS011;55461;52.066;5.194;2023-01-19T04:47:24;6.8;;;1.9;;
68473;SDS011;55461;52.066;5.194;2023-01-19T04:49:00;7.5;;;1.6;;
68473;SDS011;55461;52.066;5.194;2023-01-19T04:50:36;5.3;;;1.7;;
68473;SDS011;55461;52.066;5.194;2023-01-19T04:53:50;4.61;;;1.4;;
68473;SDS011;55461;52.066;5.194;2023-01-19T04:55:26;4.5;;;1.4;;
68473;SDS011;55461;52.066;5.194;2023-01-19T04:57:03;6.2;;;1.5;;
68473;SDS011;55461;52.066;5.194;2023-01-19T04:58:39;7.6;;;1.8;;
68473;SDS011;55461;52.066;5.194;2023-01-19T05:01:54;3.0;;;1.0;;
68473;SDS011;55461;52.066;5.194;2023-01-19T05:03:31;5.5;;;1.5;;
68473;SDS011;55461;52.066;5.194;2023-01-19T05:05:08;6.8;;;1.6;;
68473;SDS011;55461;52.066;5.194;2023-01-19T05:08:21;7.6;;;1.7;;
68473;SDS011;55461;52.066;5.194;2023-01-19T05:09:57;5.6;;;1.4;;
68473;SDS011;55461;52.066;5.194;2023-01-19T05:11:33;5.0;;;1.7;;
68473;SDS011;55461;52.066;5.194;2023-01-19T05:14:45;5.6;;;1.7;;
68473;SDS011;55461;52.066;5.194;2023-01-19T05:16:21;6.6;;;1.6;;
68473;SDS011;55461;52.066;5.194;2023-01-19T05:17:58;7.7;;;1.7;;
68473;SDS011;55461;52.066;5.194;2023-01-19T05:19:34;8.81;;;1.8;;
68473;SDS011;55461;52.066;5.194;2023-01-19T05:22:47;7.1;;;2.0;;
68473;SDS011;55461;52.066;5.194;2023-01-19T05:24:24;8.9;;;2.0;;
68473;SDS011;55461;52.066;5.194;2023-01-19T05:26:01;6.7;;;1.8;;
68473;SDS011;55461;52.066;5.194;2023-01-19T05:29:15;10.3;;;2.1;;
68473;SDS011;55461;52.066;5.194;2023-01-19T05:30:51;8.71;;;2.21;;
68473;SDS011;55461;52.066;5.194;2023-01-19T05:32:28;7.3;;;1.9;;
68473;SDS011;55461;52.066;5.194;2023-01-19T05:35:40;7.3;;;1.9;;
68473;SDS011;55461;52.066;5.194;2023-01-19T05:37:16;9.4;;;2.31;;
68473;SDS011;55461;52.066;5.194;2023-01-19T05:38:52;11.1;;;2.0;;
68473;SDS011;55461;52.066;5.194;2023-01-19T05:40:29;8.6;;;2.1;;
68473;SDS011;55461;52.066;5.194;2023-01-19T05:43:41;10.9;;;2.5;;
68473;SDS011;55461;52.066;5.194;2023-01-19T05:45:17;8.1;;;2.31;;
68473;SDS011;55461;52.066;5.194;2023-01-19T05:46:53;11.1;;;2.4;;
68473;SDS011;55461;52.066;5.194;2023-01-19T05:50:06;11.4;;;2.7;;
68473;SDS011;55461;52.066;5.194;2023-01-19T05:51:44;12.2;;;2.8;;
68473;SDS011;55461;52.066;5.194;2023-01-19T05:53:20;9.4;;;2.7;;
68473;SDS011;55461;52.066;5.194;2023-01-19T05:56:33;11.3;;;2.7;;
68473;SDS011;55461;52.066;5.194;2023-01-19T05:58:09;8.81;;;2.5;;
68473;SDS011;55461;52.066;5.194;2023-01-19T05:59:45;9.71;;;2.6;;
68473;SDS011;55461;52.066;5.194;2023-01-19T06:01:21;11.5;;;2.7;;
68473;SDS011;55461;52.066;5.194;2023-01-19T06:04:36;11.3;;;2.7;;
68473;SDS011;55461;52.066;5.194;2023-01-19T06:06:14;10.21;;;2.4;;
68473;SDS011;55461;52.066;5.194;2023-01-19T06:07:50;9.0;;;2.31;;
68473;SDS011;55461;52.066;5.194;2023-01-19T06:11:04;7.3;;;2.5;;
68473;SDS011;55461;52.066;5.194;2023-01-19T06:12:40;10.5;;;2.8;;
68473;SDS011;55461;52.066;5.194;2023-01-19T06:14:17;8.2;;;2.31;;
68473;SDS011;55461;52.066;5.194;2023-01-19T06:17:33;9.71;;;2.4;;
68473;SDS011;55461;52.066;5.194;2023-01-19T06:19:09;12.0;;;2.7;;
68473;SDS011;55461;52.066;5.194;2023-01-19T06:20:45;11.5;;;2.9;;
68473;SDS011;55461;52.066;5.194;2023-01-19T06:22:22;11.3;;;3.1;;
68473;SDS011;55461;52.066;5.194;2023-01-19T06:25:34;10.7;;;2.9;;
68473;SDS011;55461;52.066;5.194;2023-01-19T06:27:10;13.7;;;3.1;;
68473;SDS011;55461;52.066;5.194;2023-01-19T06:28:49;10.0;;;2.7;;
68473;SDS011;55461;52.066;5.194;2023-01-19T06:32:03;14.1;;;3.0;;
68473;SDS011;55461;52.066;5.194;2023-01-19T06:33:40;11.4;;;2.5;;
68473;SDS011;55461;52.066;5.194;2023-01-19T06:35:17;13.9;;;3.2;;
68473;SDS011;55461;52.066;5.194;2023-01-19T06:36:53;9.81;;;2.8;;
68473;SDS011;55461;52.066;5.194;2023-01-19T06:40:06;10.21;;;2.9;;
68473;SDS011;55461;52.066;5.194;2023-01-19T06:41:44;10.21;;;2.9;;
68473;SDS011;55461;52.066;5.194;2023-01-19T06:43:21;11.4;;;3.1;;
68473;SDS011;55461;52.066;5.194;2023-01-19T06:46:34;11.8;;;3.2;;
68473;SDS011;55461;52.066;5.194;2023-01-19T06:48:10;17.61;;;3.5;;
68473;SDS011;55461;52.066;5.194;2023-01-19T06:49:47;11.6;;;3.1;;
68473;SDS011;55461;52.066;5.194;2023-01-19T06:53:01;10.6;;;3.0;;
68473;SDS011;55461;52.066;5.194;2023-01-19T06:54:37;16.61;;;3.5;;
68473;SDS011;55461;52.066;5.194;2023-01-19T06:56:14;13.3;;;3.5;;
68473;SDS011;55461;52.066;5.194;2023-01-19T06:57:54;16.5;;;3.8;;
68473;SDS011;55461;52.066;5.194;2023-01-19T07:01:08;15.4;;;3.7;;
68473;SDS011;55461;52.066;5.194;2023-01-19T07:02:44;13.9;;;3.6;;
68473;SDS011;55461;52.066;5.194;2023-01-19T07:04:21;13.6;;;3.2;;
68473;SDS011;55461;52.066;5.194;2023-01-19T07:07:38;22.2;;;4.1;;
68473;SDS011;55461;52.066;5.194;2023-01-19T07:09:16;12.7;;;3.8;;
68473;SDS011;55461;52.066;5.194;2023-01-19T07:10:57;12.3;;;3.7;;
68473;SDS011;55461;52.066;5.194;2023-01-19T07:12:34;16.61;;;4.1;;
68473;SDS011;55461;52.066;5.194;2023-01-19T07:15:47;13.3;;;3.4;;
68473;SDS011;55461;52.066;5.194;2023-01-19T07:17:23;16.8;;;3.8;;
68473;SDS011;55461;52.066;5.194;2023-01-19T07:18:59;20.9;;;4.61;;
68473;SDS011;55461;52.066;5.194;2023-01-19T07:22:12;16.11;;;3.9;;
68473;SDS011;55461;52.066;5.194;2023-01-19T07:23:49;18.41;;;3.9;;
68473;SDS011;55461;52.066;5.194;2023-01-19T07:25:27;23.6;;;4.0;;
68473;SDS011;55461;52.066;5.194;2023-01-19T07:28:40;16.7;;;4.1;;
68473;SDS011;55461;52.066;5.194;2023-01-19T07:30:17;16.7;;;3.7;;
68473;SDS011;55461;52.066;5.194;2023-01-19T07:31:53;15.6;;;3.3;;
68473;SDS011;55461;52.066;5.194;2023-01-19T07:33:30;15.9;;;4.1;;
68473;SDS011;55461;52.066;5.194;2023-01-19T07:36:43;14.1;;;3.7;;
68473;SDS011;55461;52.066;5.194;2023-01-19T07:38:20;15.1;;;3.7;;
68473;SDS011;55461;52.066;5.194;2023-01-19T07:39:57;17.11;;;3.6;;
68473;SDS011;55461;52.066;5.194;2023-01-19T07:43:09;17.41;;;4.0;;
68473;SDS011;55461;52.066;5.194;2023-01-19T07:44:45;14.5;;;3.9;;
68473;SDS011;55461;52.066;5.194;2023-01-19T07:46:22;18.11;;;3.9;;
68473;SDS011;55461;52.066;5.194;2023-01-19T07:49:37;16.4;;;4.41;;
68473;SDS011;55461;52.066;5.194;2023-01-19T07:51:17;17.3;;;4.2;;
68473;SDS011;55461;52.066;5.194;2023-01-19T07:52:55;14.7;;;3.9;;
68473;SDS011;55461;52.066;5.194;2023-01-19T07:54:31;16.8;;;4.41;;
68473;SDS011;55461;52.066;5.194;2023-01-19T07:57:46;17.11;;;4.2;;
68473;SDS011;55461;52.066;5.194;2023-01-19T07:59:24;16.5;;;4.3;;
68473;SDS011;55461;52.066;5.194;2023-01-19T08:01:00;19.5;;;4.5;;
68473;SDS011;55461;52.066;5.194;2023-01-19T08:02:41;17.2;;;4.3;;
68473;SDS011;55461;52.066;5.194;2023-01-19T08:05:56;22.4;;;4.91;;
68473;SDS011;55461;52.066;5.194;2023-01-19T08:07:32;15.9;;;4.41;;
68473;SDS011;55461;52.066;5.194;2023-01-19T08:12:24;16.9;;;4.3;;
68473;SDS011;55461;52.066;5.194;2023-01-19T08:14:01;20.8;;;4.61;;
68473;SDS011;55461;52.066;5.194;2023-01-19T08:15:38;15.5;;;4.0;;
68473;SDS011;55461;52.066;5.194;2023-01-19T08:18:50;19.7;;;4.1;;
68473;SDS011;55461;52.066;5.194;2023-01-19T08:20:28;17.8;;;4.3;;
68473;SDS011;55461;52.066;5.194;2023-01-19T08:22:05;15.5;;;4.2;;
68473;SDS011;55461;52.066;5.194;2023-01-19T08:23:40;12.1;;;3.6;;
68473;SDS011;55461;52.066;5.194;2023-01-19T08:26:56;16.2;;;3.9;;
68473;SDS011;55461;52.066;5.194;2023-01-19T08:28:35;15.8;;;3.8;;
68473;SDS011;55461;52.066;5.194;2023-01-19T08:30:12;15.5;;;3.6;;
68473;SDS011;55461;52.066;5.194;2023-01-19T08:33:24;15.0;;;3.5;;
68473;SDS011;55461;52.066;5.194;2023-01-19T08:35:00;17.61;;;3.7;;
68473;SDS011;55461;52.066;5.194;2023-01-19T08:36:38;13.7;;;3.5;;
68473;SDS011;55461;52.066;5.194;2023-01-19T08:38:15;12.6;;;3.5;;
68473;SDS011;55461;52.066;5.194;2023-01-19T08:41:29;15.1;;;3.4;;
68473;SDS011;55461;52.066;5.194;2023-01-19T08:43:07;18.41;;;3.4;;
68473;SDS011;55461;52.066;5.194;2023-01-19T08:44:46;12.1;;;3.1;;
68473;SDS011;55461;52.066;5.194;2023-01-19T08:47:59;13.2;;;2.9;;
68473;SDS011;55461;52.066;5.194;2023-01-19T08:49:36;11.1;;;2.8;;
68473;SDS011;55461;52.066;5.194;2023-01-19T08:51:13;15.0;;;3.2;;
68473;SDS011;55461;52.066;5.194;2023-01-19T08:54:30;10.4;;;2.7;;
68473;SDS011;55461;52.066;5.194;2023-01-19T08:56:11;10.8;;;2.7;;
68473;SDS011;55461;52.066;5.194;2023-01-19T08:57:50;13.0;;;3.0;;
68473;SDS011;55461;52.066;5.194;2023-01-19T08:59:26;11.3;;;2.8;;
68473;SDS011;55461;52.066;5.194;2023-01-19T09:02:40;12.5;;;2.6;;
68473;SDS011;55461;52.066;5.194;2023-01-19T09:04:16;11.1;;;3.2;;
68473;SDS011;55461;52.066;5.194;2023-01-19T09:05:52;8.6;;;2.5;;
68473;SDS011;55461;52.066;5.194;2023-01-19T09:09:06;11.3;;;2.6;;
68473;SDS011;55461;52.066;5.194;2023-01-19T09:10:44;10.21;;;2.5;;
68473;SDS011;55461;52.066;5.194;2023-01-19T09:12:22;12.8;;;2.8;;
68473;SDS011;55461;52.066;5.194;2023-01-19T09:13:58;11.5;;;2.6;;
68473;SDS011;55461;52.066;5.194;2023-01-19T09:17:13;10.5;;;2.5;;
68473;SDS011;55461;52.066;5.194;2023-01-19T09:18:49;9.0;;;2.5;;
68473;SDS011;55461;52.066;5.194;2023-01-19T09:20:25;8.71;;;2.4;;
68473;SDS011;55461;52.066;5.194;2023-01-19T09:23:38;11.7;;;2.8;;
68473;SDS011;55461;52.066;5.194;2023-01-19T09:25:14;8.6;;;2.4;;
68473;SDS011;55461;52.066;5.194;2023-01-19T09:26:50;8.4;;;2.21;;
68473;SDS011;55461;52.066;5.194;2023-01-19T09:28:26;8.4;;;2.5;;
68473;SDS011;55461;52.066;5.194;2023-01-19T09:31:43;9.6;;;2.6;;
68473;SDS011;55461;52.066;5.194;2023-01-19T09:33:19;9.4;;;2.31;;
68473;SDS011;55461;52.066;5.194;2023-01-19T09:34:56;8.4;;;2.31;;
68473;SDS011;55461;52.066;5.194;2023-01-19T09:38:11;11.0;;;2.7;;
68473;SDS011;55461;52.066;5.194;2023-01-19T09:39:48;9.81;;;2.5;;
68473;SDS011;55461;52.066;5.194;2023-01-19T09:41:25;10.7;;;2.5;;
68473;SDS011;55461;52.066;5.194;2023-01-19T09:44:49;9.21;;;2.7;;
68473;SDS011;55461;52.066;5.194;2023-01-19T09:46:27;9.4;;;2.4;;
68473;SDS011;55461;52.066;5.194;2023-01-19T09:48:15;9.6;;;2.21;;
68473;SDS011;55461;52.066;5.194;2023-01-19T09:50:05;9.1;;;2.1;;
68473;SDS011;55461;52.066;5.194;2023-01-19T09:51:51;7.5;;;2.1;;
68473;SDS011;55461;52.066;5.194;2023-01-19T09:55:25;12.0;;;2.9;;
68473;SDS011;55461;52.066;5.194;2023-01-19T09:57:02;10.5;;;2.4;;
68473;SDS011;55461;52.066;5.194;2023-01-19T09:58:46;9.6;;;2.21;;
68473;SDS011;55461;52.066;5.194;2023-01-19T10:00:24;9.4;;;2.4;;
68473;SDS011;55461;52.066;5.194;2023-01-19T10:02:06;8.81;;;2.5;;
68473;SDS011;55461;52.066;5.194;2023-01-19T10:05:56;7.7;;;2.31;;
68473;SDS011;55461;52.066;5.194;2023-01-19T10:07:41;12.6;;;3.0;;
68473;SDS011;55461;52.066;5.194;2023-01-19T10:09:30;11.2;;;2.7;;
68473;SDS011;55461;52.066;5.194;2023-01-19T10:11:14;11.7;;;2.4;;
68473;SDS011;55461;52.066;5.194;2023-01-19T10:13:22;7.6;;;2.21;;
68473;SDS011;55461;52.066;5.194;2023-01-19T10:15:12;7.6;;;2.21;;
68473;SDS011;55461;52.066;5.194;2023-01-19T10:17:04;10.21;;;2.7;;
68473;SDS011;55461;52.066;5.194;2023-01-19T10:18:54;10.0;;;2.7;;
68473;SDS011;55461;52.066;5.194;2023-01-19T10:22:19;9.21;;;2.7;;
68473;SDS011;55461;52.066;5.194;2023-01-19T10:24:00;9.6;;;2.7;;
68473;SDS011;55461;52.066;5.194;2023-01-19T10:25:42;9.81;;;2.6;;
68473;SDS011;55461;52.066;5.194;2023-01-19T10:27:20;9.31;;;2.5;;
68473;SDS011;55461;52.066;5.194;2023-01-19T10:30:42;8.31;;;2.5;;
68473;SDS011;55461;52.066;5.194;2023-01-19T10:32:25;10.8;;;2.8;;
68473;SDS011;55461;52.066;5.194;2023-01-19T10:34:05;10.4;;;2.5;;
68473;SDS011;55461;52.066;5.194;2023-01-19T10:35:47;11.7;;;3.4;;
68473;SDS011;55461;52.066;5.194;2023-01-19T10:39:08;11.0;;;2.6;;
68473;SDS011;55461;52.066;5.194;2023-01-19T10:40:53;9.0;;;2.6;;
68473;SDS011;55461;52.066;5.194;2023-01-19T10:42:32;12.3;;;2.8;;
68473;SDS011;55461;52.066;5.194;2023-01-19T10:44:21;11.4;;;3.4;;
68473;SDS011;55461;52.066;5.194;2023-01-19T10:45:58;11.2;;;3.0;;
68473;SDS011;55461;52.066;5.194;2023-01-19T10:49:21;9.6;;;2.7;;
68473;SDS011;55461;52.066;5.194;2023-01-19T10:51:00;12.3;;;2.8;;
68473;SDS011;55461;52.066;5.194;2023-01-19T10:52:41;8.6;;;2.6;;
68473;SDS011;55461;52.066;5.194;2023-01-19T10:54:17;7.5;;;2.5;;
68473;SDS011;55461;52.066;5.194;2023-01-19T10:57:49;12.1;;;2.6;;
68473;SDS011;55461;52.066;5.194;2023-01-19T10:59:30;9.1;;;3.0;;
68473;SDS011;55461;52.066;5.194;2023-01-19T11:01:12;10.0;;;2.7;;
68473;SDS011;55461;52.066;5.194;2023-01-19T11:02:52;9.31;;;2.4;;
68473;SDS011;55461;52.066;5.194;2023-01-19T11:06:17;8.2;;;2.4;;
68473;SDS011;55461;52.066;5.194;2023-01-19T11:07:56;8.9;;;2.31;;
68473;SDS011;55461;52.066;5.194;2023-01-19T11:09:33;10.4;;;2.5;;
68473;SDS011;55461;52.066;5.194;2023-01-19T11:11:11;8.2;;;2.8;;
68473;SDS011;55461;52.066;5.194;2023-01-19T11:14:36;8.6;;;2.31;;
68473;SDS011;55461;52.066;5.194;2023-01-19T11:16:15;9.31;;;2.4;;
68473;SDS011;55461;52.066;5.194;2023-01-19T11:18:01;7.7;;;2.4;;
68473;SDS011;55461;52.066;5.194;2023-01-19T11:19:40;9.1;;;2.1;;
68473;SDS011;55461;52.066;5.194;2023-01-19T11:23:06;5.9;;;1.8;;
68473;SDS011;55461;52.066;5.194;2023-01-19T11:24:56;7.2;;;2.1;;
68473;SDS011;55461;52.066;5.194;2023-01-19T11:26:38;5.6;;;1.6;;
68473;SDS011;55461;52.066;5.194;2023-01-19T11:28:18;7.7;;;1.8;;
68473;SDS011;55461;52.066;5.194;2023-01-19T11:30:02;8.6;;;1.6;;
68473;SDS011;55461;52.066;5.194;2023-01-19T11:33:23;8.0;;;1.4;;
68473;SDS011;55461;52.066;5.194;2023-01-19T11:35:02;7.8;;;1.8;;
68473;SDS011;55461;52.066;5.194;2023-01-19T11:37:28;8.5;;;1.6;;
68473;SDS011;55461;52.066;5.194;2023-01-19T11:39:14;6.3;;;1.5;;
68473;SDS011;55461;52.066;5.194;2023-01-19T11:40:58;6.5;;;1.6;;
68473;SDS011;55461;52.066;5.194;2023-01-19T11:42:36;6.4;;;1.4;;
68473;SDS011;55461;52.066;5.194;2023-01-19T11:45:55;6.9;;;1.4;;
68473;SDS011;55461;52.066;5.194;2023-01-19T11:47:35;6.3;;;1.4;;
68473;SDS011;55461;52.066;5.194;2023-01-19T11:49:19;4.8;;;1.3;;
68473;SDS011;55461;52.066;5.194;2023-01-19T11:51:02;4.8;;;1.4;;
68473;SDS011;55461;52.066;5.194;2023-01-19T11:54:28;6.0;;;1.4;;
68473;SDS011;55461;52.066;5.194;2023-01-19T11:56:10;7.2;;;1.5;;
68473;SDS011;55461;52.066;5.194;2023-01-19T11:57:50;5.5;;;1.5;;
68473;SDS011;55461;52.066;5.194;2023-01-19T11:59:28;4.3;;;1.3;;
68473;SDS011;55461;52.066;5.194;2023-01-19T12:02:48;7.2;;;1.4;;
68473;SDS011;55461;52.066;5.194;2023-01-19T12:04:30;7.2;;;1.5;;
68473;SDS011;55461;52.066;5.194;2023-01-19T12:06:13;7.2;;;1.5;;
68473;SDS011;55461;52.066;5.194;2023-01-19T12:07:54;7.4;;;1.6;;
68473;SDS011;55461;52.066;5.194;2023-01-19T12:09:34;5.4;;;1.11;;
68473;SDS011;55461;52.066;5.194;2023-01-19T12:13:00;6.0;;;1.3;;
68473;SDS011;55461;52.066;5.194;2023-01-19T12:14:39;5.2;;;1.4;;
68473;SDS011;55461;52.066;5.194;2023-01-19T12:16:30;4.7;;;1.3;;
68473;SDS011;55461;52.066;5.194;2023-01-19T12:18:11;4.91;;;1.2;;
68473;SDS011;55461;52.066;5.194;2023-01-19T12:21:38;5.8;;;1.2;;
68473;SDS011;55461;52.066;5.194;2023-01-19T12:23:17;7.1;;;1.4;;
68473;SDS011;55461;52.066;5.194;2023-01-19T12:25:05;6.5;;;1.4;;
68473;SDS011;55461;52.066;5.194;2023-01-19T12:26:55;4.1;;;1.2;;
68473;SDS011;55461;52.066;5.194;2023-01-19T12:28:33;5.3;;;1.0;;
68473;SDS011;55461;52.066;5.194;2023-01-19T12:33:19;4.41;;;1.3;;
68473;SDS011;55461;52.066;5.194;2023-01-19T12:34:57;6.0;;;1.11;;
68473;SDS011;55461;52.066;5.194;2023-01-19T12:38:32;3.9;;;1.2;;
68473;SDS011;55461;52.066;5.194;2023-01-19T12:40:18;4.91;;;1.2;;
68473;SDS011;55461;52.066;5.194;2023-01-19T12:42:02;6.1;;;1.2;;
68473;SDS011;55461;52.066;5.194;2023-01-19T12:45:49;4.41;;;1.11;;
68473;SDS011;55461;52.066;5.194;2023-01-19T12:47:26;4.7;;;1.11;;
68473;SDS011;55461;52.066;5.194;2023-01-19T12:50:41;4.8;;;1.4;;
68473;SDS011;55461;52.066;5.194;2023-01-19T12:52:23;5.0;;;1.4;;
68473;SDS011;55461;52.066;5.194;2023-01-19T12:54:06;5.2;;;1.5;;
68473;SDS011;55461;52.066;5.194;2023-01-19T12:55:56;5.5;;;1.5;;
68473;SDS011;55461;52.066;5.194;2023-01-19T12:57:46;4.8;;;1.3;;
68473;SDS011;55461;52.066;5.194;2023-01-19T13:01:11;4.2;;;1.4;;
68473;SDS011;55461;52.066;5.194;2023-01-19T13:02:51;4.7;;;1.6;;
68473;SDS011;55461;52.066;5.194;2023-01-19T13:04:30;3.5;;;1.3;;
68473;SDS011;55461;52.066;5.194;2023-01-19T13:06:08;6.5;;;1.5;;
68473;SDS011;55461;52.066;5.194;2023-01-19T13:09:56;6.0;;;1.3;;
68473;SDS011;55461;52.066;5.194;2023-01-19T13:11:33;4.2;;;1.2;;